createdAt,value
2022-12-24T00:19:16.818Z,100.00
2022-12-24T00:39:37.404Z,100.00
2022-12-24T00:59:57.434Z,100.00
2022-12-24T01:20:17.202Z,100.00
2022-12-24T01:40:19.028Z,100.00
2022-12-24T02:00:20.471Z,100.00
2022-12-24T02:20:22.014Z,100.00
2022-12-24T02:40:23.735Z,100.00
2022-12-24T03:00:25.292Z,100.00
2022-12-24T03:20:26.931Z,100.00
2022-12-24T03:40:28.477Z,100.00
2022-12-24T04:00:30.083Z,100.00
2022-12-24T04:20:31.604Z,100.00
2022-12-24T04:40:33.067Z,100.00
2022-12-24T05:00:53.895Z,100.00
2022-12-24T05:21:13.927Z,100.00
2022-12-24T05:41:37.210Z,100.00
2022-12-24T06:01:57.468Z,100.00
2022-12-24T06:22:17.745Z,100.00
2022-12-24T06:42:37.715Z,100.00
2022-12-24T07:02:39.409Z,100.00
2022-12-24T07:22:41.060Z,100.00
2022-12-24T07:42:52.019Z,100.00
2022-12-24T08:02:53.661Z,100.00
2022-12-24T08:22:55.459Z,100.00
2022-12-24T08:42:56.907Z,92.85
2022-12-24T09:02:58.762Z,93.26
2022-12-24T09:23:00.417Z,91.17
2022-12-24T09:43:02.016Z,95.10
2022-12-24T10:03:03.592Z,100.00
2022-12-24T10:23:05.343Z,100.00
2022-12-24T10:43:06.970Z,100.00
2022-12-24T11:03:08.731Z,94.98
2022-12-24T11:23:10.525Z,96.65
2022-12-24T11:43:14.907Z,95.91
2022-12-24T12:03:16.579Z,96.75
2022-12-24T12:23:18.998Z,94.12
2022-12-24T12:43:20.660Z,93.65
2022-12-24T13:03:22.603Z,91.58
2022-12-24T13:23:24.316Z,95.25
2022-12-24T13:43:26.120Z,98.18
2022-12-24T14:03:27.711Z,97.21
2022-12-24T14:23:29.367Z,97.43
2022-12-24T14:43:30.913Z,100.00
2022-12-24T15:03:32.930Z,100.00
2022-12-24T15:23:34.590Z,100.00
2022-12-24T15:43:36.411Z,100.00
2022-12-24T16:03:38.288Z,100.00
2022-12-24T16:23:40.705Z,100.00
2022-12-24T16:43:42.283Z,100.00
2022-12-24T17:03:43.958Z,100.00
2022-12-24T17:23:45.588Z,100.00
2022-12-24T17:44:02.651Z,96.43
2022-12-24T18:04:04.357Z,100.00
2022-12-24T18:24:05.992Z,100.00
2022-12-24T18:44:07.766Z,100.00
2022-12-24T19:04:09.368Z,100.00
2022-12-24T19:24:11.020Z,100.00
2022-12-24T19:44:12.611Z,100.00
2022-12-24T20:04:14.280Z,100.00
2022-12-24T20:24:16.174Z,100.00
2022-12-24T20:44:17.675Z,100.00
2022-12-24T21:04:19.511Z,100.00
2022-12-24T21:24:21.022Z,100.00
2022-12-24T21:44:22.917Z,100.00
2022-12-24T22:04:24.460Z,100.00
2022-12-24T22:24:26.045Z,100.00
2022-12-24T22:44:28.055Z,100.00
2022-12-24T23:04:29.661Z,100.00
2022-12-24T23:24:31.472Z,100.00
2022-12-24T23:44:33.132Z,100.00
